sensor_id;sensor_type;location;lat;lon;timestamp;temperature;humidity
52675;DHT22;38569;52.722;6.440;2023-05-07T00:01:50;14.40;99.90
52675;DHT22;38569;52.722;6.440;2023-05-07T00:04:16;14.40;99.90
52675;DHT22;38569;52.722;6.440;2023-05-07T00:06:41;14.40;99.90
52675;DHT22;38569;52.722;6.440;2023-05-07T00:09:07;14.30;99.90
52675;DHT22;38569;52.722;6.440;2023-05-07T00:11:33;14.30;99.90
52675;DHT22;38569;52.722;6.440;2023-05-07T00:13:59;14.30;99.90
52675;DHT22;38569;52.722;6.440;2023-05-07T00:16:25;14.30;99.90
52675;DHT22;38569;52.722;6.440;2023-05-07T00:18:51;14.30;99.90
52675;DHT22;38569;52.722;6.440;2023-05-07T00:21:16;14.30;99.90
52675;DHT22;38569;52.722;6.440;2023-05-07T00:23:42;14.20;99.90
52675;DHT22;38569;52.722;6.440;2023-05-07T00:26:08;14.20;99.90
52675;DHT22;38569;52.722;6.440;2023-05-07T00:28:33;14.20;99.90
52675;DHT22;38569;52.722;6.440;2023-05-07T00:30:59;14.20;99.90
52675;DHT22;38569;52.722;6.440;2023-05-07T00:33:25;14.20;99.90
52675;DHT22;38569;52.722;6.440;2023-05-07T00:35:52;14.20;99.90
52675;DHT22;38569;52.722;6.440;2023-05-07T00:38:19;14.10;99.90
52675;DHT22;38569;52.722;6.440;2023-05-07T00:40:45;14.10;99.90
52675;DHT22;38569;52.722;6.440;2023-05-07T00:43:11;14.10;99.90
52675;DHT22;38569;52.722;6.440;2023-05-07T00:45:38;14.10;99.90
52675;DHT22;38569;52.722;6.440;2023-05-07T00:48:04;14.10;99.90
52675;DHT22;38569;52.722;6.440;2023-05-07T00:50:31;14.00;99.90
52675;DHT22;38569;52.722;6.440;2023-05-07T00:52:58;14.00;99.90
52675;DHT22;38569;52.722;6.440;2023-05-07T00:55:25;13.90;99.90
52675;DHT22;38569;52.722;6.440;2023-05-07T00:57:51;13.90;99.90
52675;DHT22;38569;52.722;6.440;2023-05-07T01:00:17;13.90;99.90
52675;DHT22;38569;52.722;6.440;2023-05-07T01:02:44;13.90;99.90
52675;DHT22;38569;52.722;6.440;2023-05-07T01:05:15;13.80;99.90
52675;DHT22;38569;52.722;6.440;2023-05-07T01:07:43;13.80;99.90
52675;DHT22;38569;52.722;6.440;2023-05-07T01:10:09;13.80;99.90
52675;DHT22;38569;52.722;6.440;2023-05-07T01:12:37;13.80;99.90
52675;DHT22;38569;52.722;6.440;2023-05-07T01:15:04;13.80;99.90
52675;DHT22;38569;52.722;6.440;2023-05-07T01:17:40;13.70;99.90
52675;DHT22;38569;52.722;6.440;2023-05-07T01:20:07;13.70;99.90
52675;DHT22;38569;52.722;6.440;2023-05-07T01:22:38;13.70;99.90
52675;DHT22;38569;52.722;6.440;2023-05-07T01:25:05;13.60;99.90
52675;DHT22;38569;52.722;6.440;2023-05-07T01:27:31;13.60;99.90
52675;DHT22;38569;52.722;6.440;2023-05-07T01:29:59;13.60;99.90
52675;DHT22;38569;52.722;6.440;2023-05-07T01:32:32;13.60;99.90
52675;DHT22;38569;52.722;6.440;2023-05-07T01:35:00;13.50;99.90
52675;DHT22;38569;52.722;6.440;2023-05-07T01:37:28;13.50;99.90
52675;DHT22;38569;52.722;6.440;2023-05-07T01:39:54;13.50;99.90
52675;DHT22;38569;52.722;6.440;2023-05-07T01:42:21;13.40;99.90
52675;DHT22;38569;52.722;6.440;2023-05-07T01:44:47;13.40;99.90
52675;DHT22;38569;52.722;6.440;2023-05-07T01:47:14;13.40;99.90
52675;DHT22;38569;52.722;6.440;2023-05-07T01:49:40;13.30;99.90
52675;DHT22;38569;52.722;6.440;2023-05-07T01:52:06;13.30;99.90
52675;DHT22;38569;52.722;6.440;2023-05-07T01:54:32;13.20;99.90
52675;DHT22;38569;52.722;6.440;2023-05-07T01:56:58;13.20;99.90
52675;DHT22;38569;52.722;6.440;2023-05-07T01:59:23;13.10;99.90
52675;DHT22;38569;52.722;6.440;2023-05-07T02:01:49;13.10;99.90
52675;DHT22;38569;52.722;6.440;2023-05-07T02:04:15;13.10;99.90
52675;DHT22;38569;52.722;6.440;2023-05-07T02:06:40;13.10;99.90
52675;DHT22;38569;52.722;6.440;2023-05-07T02:09:06;13.00;99.90
52675;DHT22;38569;52.722;6.440;2023-05-07T02:11:34;13.00;99.90
52675;DHT22;38569;52.722;6.440;2023-05-07T02:14:00;12.90;99.90
52675;DHT22;38569;52.722;6.440;2023-05-07T02:16:26;12.90;99.90
52675;DHT22;38569;52.722;6.440;2023-05-07T02:18:51;12.80;99.90
52675;DHT22;38569;52.722;6.440;2023-05-07T02:21:17;12.80;99.90
52675;DHT22;38569;52.722;6.440;2023-05-07T02:23:43;12.70;99.90
52675;DHT22;38569;52.722;6.440;2023-05-07T02:26:10;12.70;99.90
52675;DHT22;38569;52.722;6.440;2023-05-07T02:28:36;12.70;99.90
52675;DHT22;38569;52.722;6.440;2023-05-07T02:31:05;12.60;99.90
52675;DHT22;38569;52.722;6.440;2023-05-07T02:33:32;12.60;99.90
52675;DHT22;38569;52.722;6.440;2023-05-07T02:36:10;12.50;99.90
52675;DHT22;38569;52.722;6.440;2023-05-07T02:38:36;12.50;99.90
52675;DHT22;38569;52.722;6.440;2023-05-07T02:41:02;12.40;99.90
52675;DHT22;38569;52.722;6.440;2023-05-07T02:43:28;12.40;99.90
52675;DHT22;38569;52.722;6.440;2023-05-07T02:46:02;12.30;99.90
52675;DHT22;38569;52.722;6.440;2023-05-07T02:48:28;12.30;99.90
52675;DHT22;38569;52.722;6.440;2023-05-07T02:50:54;12.20;99.90
52675;DHT22;38569;52.722;6.440;2023-05-07T02:53:19;12.20;99.90
52675;DHT22;38569;52.722;6.440;2023-05-07T02:55:45;12.10;99.90
52675;DHT22;38569;52.722;6.440;2023-05-07T02:58:11;12.10;99.90
52675;DHT22;38569;52.722;6.440;2023-05-07T03:00:36;12.10;99.90
52675;DHT22;38569;52.722;6.440;2023-05-07T03:03:02;12.10;99.90
52675;DHT22;38569;52.722;6.440;2023-05-07T03:05:28;12.10;99.90
52675;DHT22;38569;52.722;6.440;2023-05-07T03:07:54;12.00;99.90
52675;DHT22;38569;52.722;6.440;2023-05-07T03:10:19;12.00;99.90
52675;DHT22;38569;52.722;6.440;2023-05-07T03:12:45;12.10;99.90
52675;DHT22;38569;52.722;6.440;2023-05-07T03:15:11;12.00;99.90
52675;DHT22;38569;52.722;6.440;2023-05-07T03:17:38;12.00;99.90
52675;DHT22;38569;52.722;6.440;2023-05-07T03:20:04;12.00;99.90
52675;DHT22;38569;52.722;6.440;2023-05-07T03:22:30;12.00;99.90
52675;DHT22;38569;52.722;6.440;2023-05-07T03:24:56;12.00;99.90
52675;DHT22;38569;52.722;6.440;2023-05-07T03:27:22;11.90;99.90
52675;DHT22;38569;52.722;6.440;2023-05-07T03:29:47;11.90;99.90
52675;DHT22;38569;52.722;6.440;2023-05-07T03:32:13;11.90;99.90
52675;DHT22;38569;52.722;6.440;2023-05-07T03:34:39;11.90;99.90
52675;DHT22;38569;52.722;6.440;2023-05-07T03:37:05;11.90;99.90
52675;DHT22;38569;52.722;6.440;2023-05-07T03:39:31;11.90;99.90
52675;DHT22;38569;52.722;6.440;2023-05-07T03:41:57;11.90;99.90
52675;DHT22;38569;52.722;6.440;2023-05-07T03:44:23;11.90;99.90
52675;DHT22;38569;52.722;6.440;2023-05-07T03:46:49;11.90;99.90
52675;DHT22;38569;52.722;6.440;2023-05-07T03:49:15;11.80;99.90
52675;DHT22;38569;52.722;6.440;2023-05-07T03:51:41;11.80;99.90
52675;DHT22;38569;52.722;6.440;2023-05-07T03:54:07;11.80;99.90
52675;DHT22;38569;52.722;6.440;2023-05-07T03:56:34;11.80;99.90
52675;DHT22;38569;52.722;6.440;2023-05-07T03:59:00;11.80;99.90
52675;DHT22;38569;52.722;6.440;2023-05-07T04:01:26;11.80;99.90
52675;DHT22;38569;52.722;6.440;2023-05-07T04:03:52;11.80;99.90
52675;DHT22;38569;52.722;6.440;2023-05-07T04:06:18;11.80;99.90
52675;DHT22;38569;52.722;6.440;2023-05-07T04:08:44;11.80;99.90
52675;DHT22;38569;52.722;6.440;2023-05-07T04:11:09;11.70;99.90
52675;DHT22;38569;52.722;6.440;2023-05-07T04:13:35;11.70;99.90
52675;DHT22;38569;52.722;6.440;2023-05-07T04:16:03;11.70;99.90
52675;DHT22;38569;52.722;6.440;2023-05-07T04:18:29;11.70;99.90
52675;DHT22;38569;52.722;6.440;2023-05-07T04:20:55;11.70;99.90
52675;DHT22;38569;52.722;6.440;2023-05-07T04:23:21;11.60;99.90
52675;DHT22;38569;52.722;6.440;2023-05-07T04:25:46;11.60;99.90
52675;DHT22;38569;52.722;6.440;2023-05-07T04:28:12;11.60;99.90
52675;DHT22;38569;52.722;6.440;2023-05-07T04:30:38;11.60;99.90
52675;DHT22;38569;52.722;6.440;2023-05-07T04:33:04;11.60;99.90
52675;DHT22;38569;52.722;6.440;2023-05-07T04:35:30;11.70;99.90
52675;DHT22;38569;52.722;6.440;2023-05-07T04:37:56;11.70;99.90
52675;DHT22;38569;52.722;6.440;2023-05-07T04:40:22;11.70;99.90
52675;DHT22;38569;52.722;6.440;2023-05-07T04:42:47;11.80;99.90
52675;DHT22;38569;52.722;6.440;2023-05-07T04:45:14;11.70;99.90
52675;DHT22;38569;52.722;6.440;2023-05-07T04:47:40;11.70;99.90
52675;DHT22;38569;52.722;6.440;2023-05-07T04:50:07;11.70;99.90
52675;DHT22;38569;52.722;6.440;2023-05-07T04:52:33;11.70;99.90
52675;DHT22;38569;52.722;6.440;2023-05-07T04:55:00;11.70;99.90
52675;DHT22;38569;52.722;6.440;2023-05-07T04:57:26;11.70;99.90
52675;DHT22;38569;52.722;6.440;2023-05-07T04:59:53;11.80;99.90
52675;DHT22;38569;52.722;6.440;2023-05-07T05:02:19;11.80;99.90
52675;DHT22;38569;52.722;6.440;2023-05-07T05:04:45;11.80;99.90
52675;DHT22;38569;52.722;6.440;2023-05-07T05:07:10;11.80;99.90
52675;DHT22;38569;52.722;6.440;2023-05-07T05:09:36;11.80;99.90
52675;DHT22;38569;52.722;6.440;2023-05-07T05:12:02;11.80;99.90
52675;DHT22;38569;52.722;6.440;2023-05-07T05:14:28;11.80;99.90
52675;DHT22;38569;52.722;6.440;2023-05-07T05:16:54;11.90;99.90
52675;DHT22;38569;52.722;6.440;2023-05-07T05:19:20;11.80;99.90
52675;DHT22;38569;52.722;6.440;2023-05-07T05:21:48;11.90;99.90
52675;DHT22;38569;52.722;6.440;2023-05-07T05:24:14;11.90;99.90
52675;DHT22;38569;52.722;6.440;2023-05-07T05:26:40;11.90;99.90
52675;DHT22;38569;52.722;6.440;2023-05-07T05:29:07;11.90;99.90
52675;DHT22;38569;52.722;6.440;2023-05-07T05:31:33;12.00;99.90
52675;DHT22;38569;52.722;6.440;2023-05-07T05:33:59;12.00;99.90
52675;DHT22;38569;52.722;6.440;2023-05-07T05:36:24;12.00;99.90
52675;DHT22;38569;52.722;6.440;2023-05-07T05:38:51;12.00;99.90
52675;DHT22;38569;52.722;6.440;2023-05-07T05:41:16;12.00;99.90
52675;DHT22;38569;52.722;6.440;2023-05-07T05:43:42;12.10;99.90
52675;DHT22;38569;52.722;6.440;2023-05-07T05:46:08;12.10;99.90
52675;DHT22;38569;52.722;6.440;2023-05-07T05:48:36;12.10;99.90
52675;DHT22;38569;52.722;6.440;2023-05-07T05:51:02;12.20;99.90
52675;DHT22;38569;52.722;6.440;2023-05-07T05:53:28;12.20;99.90
52675;DHT22;38569;52.722;6.440;2023-05-07T05:55:53;12.20;99.90
52675;DHT22;38569;52.722;6.440;2023-05-07T05:58:19;12.30;99.90
52675;DHT22;38569;52.722;6.440;2023-05-07T06:00:46;12.30;99.90
52675;DHT22;38569;52.722;6.440;2023-05-07T06:03:13;12.30;99.90
52675;DHT22;38569;52.722;6.440;2023-05-07T06:05:39;12.40;99.90
52675;DHT22;38569;52.722;6.440;2023-05-07T06:08:05;12.40;99.90
52675;DHT22;38569;52.722;6.440;2023-05-07T06:10:30;12.40;99.90
52675;DHT22;38569;52.722;6.440;2023-05-07T06:12:56;12.40;99.90
52675;DHT22;38569;52.722;6.440;2023-05-07T06:15:22;12.50;99.90
52675;DHT22;38569;52.722;6.440;2023-05-07T06:17:48;12.60;99.90
52675;DHT22;38569;52.722;6.440;2023-05-07T06:20:14;12.60;99.90
52675;DHT22;38569;52.722;6.440;2023-05-07T06:22:40;12.60;99.90
52675;DHT22;38569;52.722;6.440;2023-05-07T06:25:06;12.70;99.90
52675;DHT22;38569;52.722;6.440;2023-05-07T06:27:32;12.70;99.90
52675;DHT22;38569;52.722;6.440;2023-05-07T06:29:58;12.70;99.90
52675;DHT22;38569;52.722;6.440;2023-05-07T06:32:23;12.80;99.90
52675;DHT22;38569;52.722;6.440;2023-05-07T06:34:49;12.70;99.90
52675;DHT22;38569;52.722;6.440;2023-05-07T06:37:15;12.70;99.90
52675;DHT22;38569;52.722;6.440;2023-05-07T06:39:40;12.70;99.90
52675;DHT22;38569;52.722;6.440;2023-05-07T06:42:06;12.80;99.90
52675;DHT22;38569;52.722;6.440;2023-05-07T06:44:32;12.80;99.90
52675;DHT22;38569;52.722;6.440;2023-05-07T06:46:58;12.80;99.90
52675;DHT22;38569;52.722;6.440;2023-05-07T06:49:24;12.90;99.90
52675;DHT22;38569;52.722;6.440;2023-05-07T06:51:49;12.90;99.90
52675;DHT22;38569;52.722;6.440;2023-05-07T06:54:15;13.00;99.90
52675;DHT22;38569;52.722;6.440;2023-05-07T06:56:41;13.10;99.90
52675;DHT22;38569;52.722;6.440;2023-05-07T06:59:07;13.20;99.90
52675;DHT22;38569;52.722;6.440;2023-05-07T07:01:32;13.40;99.90
52675;DHT22;38569;52.722;6.440;2023-05-07T07:03:58;13.70;99.90
52675;DHT22;38569;52.722;6.440;2023-05-07T07:06:24;13.80;99.90
52675;DHT22;38569;52.722;6.440;2023-05-07T07:08:50;13.90;99.90
52675;DHT22;38569;52.722;6.440;2023-05-07T07:11:16;13.80;99.90
52675;DHT22;38569;52.722;6.440;2023-05-07T07:13:42;14.10;99.90
52675;DHT22;38569;52.722;6.440;2023-05-07T07:16:08;14.20;99.90
52675;DHT22;38569;52.722;6.440;2023-05-07T07:18:34;14.30;99.90
52675;DHT22;38569;52.722;6.440;2023-05-07T07:21:01;14.30;99.90
52675;DHT22;38569;52.722;6.440;2023-05-07T07:23:26;14.40;99.90
52675;DHT22;38569;52.722;6.440;2023-05-07T07:25:52;14.40;99.90
52675;DHT22;38569;52.722;6.440;2023-05-07T07:28:21;14.30;99.90
52675;DHT22;38569;52.722;6.440;2023-05-07T07:30:47;14.30;99.90
52675;DHT22;38569;52.722;6.440;2023-05-07T07:33:12;14.50;99.90
52675;DHT22;38569;52.722;6.440;2023-05-07T07:35:38;14.70;99.90
52675;DHT22;38569;52.722;6.440;2023-05-07T07:38:04;14.90;99.90
52675;DHT22;38569;52.722;6.440;2023-05-07T07:40:30;15.10;99.90
52675;DHT22;38569;52.722;6.440;2023-05-07T07:42:56;15.10;99.90
52675;DHT22;38569;52.722;6.440;2023-05-07T07:45:22;15.50;99.90
52675;DHT22;38569;52.722;6.440;2023-05-07T07:47:48;15.70;99.90
52675;DHT22;38569;52.722;6.440;2023-05-07T07:50:14;15.70;99.90
52675;DHT22;38569;52.722;6.440;2023-05-07T07:52:40;15.70;99.90
52675;DHT22;38569;52.722;6.440;2023-05-07T07:55:06;16.00;99.90
52675;DHT22;38569;52.722;6.440;2023-05-07T07:57:32;16.00;99.90
52675;DHT22;38569;52.722;6.440;2023-05-07T07:59:58;16.10;99.90
52675;DHT22;38569;52.722;6.440;2023-05-07T08:02:24;16.20;99.90
52675;DHT22;38569;52.722;6.440;2023-05-07T08:04:49;16.40;99.90
52675;DHT22;38569;52.722;6.440;2023-05-07T08:07:15;16.40;99.90
52675;DHT22;38569;52.722;6.440;2023-05-07T08:09:43;16.60;99.90
52675;DHT22;38569;52.722;6.440;2023-05-07T08:12:09;17.00;99.90
52675;DHT22;38569;52.722;6.440;2023-05-07T08:14:35;17.20;99.90
52675;DHT22;38569;52.722;6.440;2023-05-07T08:17:02;17.20;99.90
52675;DHT22;38569;52.722;6.440;2023-05-07T08:19:28;17.10;99.90
52675;DHT22;38569;52.722;6.440;2023-05-07T08:21:54;17.10;99.90
52675;DHT22;38569;52.722;6.440;2023-05-07T08:24:20;17.00;99.90
52675;DHT22;38569;52.722;6.440;2023-05-07T08:26:46;17.00;99.90
52675;DHT22;38569;52.722;6.440;2023-05-07T08:29:12;17.00;99.90
52675;DHT22;38569;52.722;6.440;2023-05-07T08:31:37;17.10;99.90
52675;DHT22;38569;52.722;6.440;2023-05-07T08:34:07;17.50;99.90
52675;DHT22;38569;52.722;6.440;2023-05-07T08:36:33;17.90;99.90
52675;DHT22;38569;52.722;6.440;2023-05-07T08:38:59;18.30;99.90
52675;DHT22;38569;52.722;6.440;2023-05-07T08:41:25;19.00;99.90
52675;DHT22;38569;52.722;6.440;2023-05-07T08:43:51;19.80;99.90
52675;DHT22;38569;52.722;6.440;2023-05-07T08:46:19;21.00;99.90
52675;DHT22;38569;52.722;6.440;2023-05-07T08:48:47;22.00;99.90
52675;DHT22;38569;52.722;6.440;2023-05-07T08:51:17;22.70;99.90
52675;DHT22;38569;52.722;6.440;2023-05-07T08:53:43;22.90;99.90
52675;DHT22;38569;52.722;6.440;2023-05-07T08:56:09;23.50;99.90
52675;DHT22;38569;52.722;6.440;2023-05-07T08:58:35;23.90;99.90
52675;DHT22;38569;52.722;6.440;2023-05-07T09:01:15;24.30;99.90
52675;DHT22;38569;52.722;6.440;2023-05-07T09:03:44;24.10;97.20
52675;DHT22;38569;52.722;6.440;2023-05-07T09:06:11;22.90;98.50
52675;DHT22;38569;52.722;6.440;2023-05-07T09:08:37;22.40;99.90
52675;DHT22;38569;52.722;6.440;2023-05-07T09:11:03;22.40;99.90
52675;DHT22;38569;52.722;6.440;2023-05-07T09:13:29;22.00;99.90
52675;DHT22;38569;52.722;6.440;2023-05-07T09:15:55;21.80;99.90
52675;DHT22;38569;52.722;6.440;2023-05-07T09:18:23;22.20;99.90
52675;DHT22;38569;52.722;6.440;2023-05-07T09:20:49;22.50;99.90
52675;DHT22;38569;52.722;6.440;2023-05-07T09:23:14;23.10;99.90
52675;DHT22;38569;52.722;6.440;2023-05-07T09:25:40;23.10;99.90
52675;DHT22;38569;52.722;6.440;2023-05-07T09:28:06;22.80;99.90
52675;DHT22;38569;52.722;6.440;2023-05-07T09:30:33;23.00;99.90
52675;DHT22;38569;52.722;6.440;2023-05-07T09:33:00;23.40;99.90
52675;DHT22;38569;52.722;6.440;2023-05-07T09:35:26;23.70;95.40
52675;DHT22;38569;52.722;6.440;2023-05-07T09:37:53;23.70;96.50
52675;DHT22;38569;52.722;6.440;2023-05-07T09:40:25;24.00;97.80
52675;DHT22;38569;52.722;6.440;2023-05-07T09:42:51;24.30;92.80
52675;DHT22;38569;52.722;6.440;2023-05-07T09:45:24;24.90;89.10
52675;DHT22;38569;52.722;6.440;2023-05-07T09:47:56;25.20;80.50
52675;DHT22;38569;52.722;6.440;2023-05-07T09:50:47;25.00;79.70
52675;DHT22;38569;52.722;6.440;2023-05-07T09:53:14;25.00;78.30
52675;DHT22;38569;52.722;6.440;2023-05-07T09:55:42;25.20;81.70
52675;DHT22;38569;52.722;6.440;2023-05-07T09:58:09;24.90;78.70
52675;DHT22;38569;52.722;6.440;2023-05-07T10:00:37;24.80;76.70
52675;DHT22;38569;52.722;6.440;2023-05-07T10:03:06;24.30;79.50
52675;DHT22;38569;52.722;6.440;2023-05-07T10:05:32;24.60;81.80
52675;DHT22;38569;52.722;6.440;2023-05-07T10:07:59;25.00;79.70
52675;DHT22;38569;52.722;6.440;2023-05-07T10:10:27;25.60;77.20
52675;DHT22;38569;52.722;6.440;2023-05-07T10:12:53;26.20;73.30
52675;DHT22;38569;52.722;6.440;2023-05-07T10:15:19;26.30;69.70
52675;DHT22;38569;52.722;6.440;2023-05-07T10:17:45;25.30;69.50
52675;DHT22;38569;52.722;6.440;2023-05-07T10:20:12;24.60;74.00
52675;DHT22;38569;52.722;6.440;2023-05-07T10:22:41;24.00;79.50
52675;DHT22;38569;52.722;6.440;2023-05-07T10:25:29;23.90;84.20
52675;DHT22;38569;52.722;6.440;2023-05-07T10:27:58;23.90;91.40
52675;DHT22;38569;52.722;6.440;2023-05-07T10:31:07;24.70;88.30
52675;DHT22;38569;52.722;6.440;2023-05-07T10:33:36;24.60;84.70
52675;DHT22;38569;52.722;6.440;2023-05-07T10:36:03;24.30;83.50
52675;DHT22;38569;52.722;6.440;2023-05-07T10:38:30;24.50;82.80
52675;DHT22;38569;52.722;6.440;2023-05-07T10:40:56;24.90;85.20
52675;DHT22;38569;52.722;6.440;2023-05-07T10:43:22;25.20;79.80
52675;DHT22;38569;52.722;6.440;2023-05-07T10:46:10;25.00;80.10
52675;DHT22;38569;52.722;6.440;2023-05-07T10:51:32;25.40;73.70
52675;DHT22;38569;52.722;6.440;2023-05-07T10:56:37;24.80;72.40
52675;DHT22;38569;52.722;6.440;2023-05-07T10:59:33;24.10;78.30
52675;DHT22;38569;52.722;6.440;2023-05-07T11:02:03;23.80;86.20
52675;DHT22;38569;52.722;6.440;2023-05-07T11:04:29;23.70;91.60
52675;DHT22;38569;52.722;6.440;2023-05-07T11:15:38;25.40;79.30
52675;DHT22;38569;52.722;6.440;2023-05-07T11:18:04;24.70;75.80
52675;DHT22;38569;52.722;6.440;2023-05-07T11:20:58;24.50;81.70
52675;DHT22;38569;52.722;6.440;2023-05-07T11:26:09;24.30;81.80
52675;DHT22;38569;52.722;6.440;2023-05-07T11:28:41;24.90;76.50
52675;DHT22;38569;52.722;6.440;2023-05-07T11:31:08;24.70;75.90
52675;DHT22;38569;52.722;6.440;2023-05-07T11:33:34;24.30;76.10
52675;DHT22;38569;52.722;6.440;2023-05-07T11:36:02;24.10;78.00
52675;DHT22;38569;52.722;6.440;2023-05-07T11:38:35;24.30;79.90
52675;DHT22;38569;52.722;6.440;2023-05-07T11:41:01;24.60;76.80
52675;DHT22;38569;52.722;6.440;2023-05-07T11:43:28;24.90;77.30
52675;DHT22;38569;52.722;6.440;2023-05-07T11:45:53;25.00;73.40
52675;DHT22;38569;52.722;6.440;2023-05-07T11:48:21;25.40;72.30
52675;DHT22;38569;52.722;6.440;2023-05-07T11:50:59;26.00;71.60
52675;DHT22;38569;52.722;6.440;2023-05-07T11:53:27;26.40;66.30
52675;DHT22;38569;52.722;6.440;2023-05-07T11:55:56;26.70;66.40
52675;DHT22;38569;52.722;6.440;2023-05-07T11:58:23;27.10;64.50
52675;DHT22;38569;52.722;6.440;2023-05-07T12:00:50;27.40;64.30
52675;DHT22;38569;52.722;6.440;2023-05-07T12:03:15;27.30;63.30
52675;DHT22;38569;52.722;6.440;2023-05-07T12:05:41;27.40;63.20
52675;DHT22;38569;52.722;6.440;2023-05-07T12:08:07;27.00;62.30
52675;DHT22;38569;52.722;6.440;2023-05-07T12:10:33;26.90;61.90
52675;DHT22;38569;52.722;6.440;2023-05-07T12:12:59;26.70;62.20
52675;DHT22;38569;52.722;6.440;2023-05-07T12:15:24;26.50;63.20
52675;DHT22;38569;52.722;6.440;2023-05-07T12:17:50;26.30;62.90
52675;DHT22;38569;52.722;6.440;2023-05-07T12:20:18;26.20;63.50
52675;DHT22;38569;52.722;6.440;2023-05-07T12:22:44;25.50;64.60
52675;DHT22;38569;52.722;6.440;2023-05-07T12:25:10;25.50;66.30
52675;DHT22;38569;52.722;6.440;2023-05-07T12:27:37;25.70;66.40
52675;DHT22;38569;52.722;6.440;2023-05-07T12:30:04;25.60;66.20
52675;DHT22;38569;52.722;6.440;2023-05-07T12:32:31;24.70;68.10
52675;DHT22;38569;52.722;6.440;2023-05-07T12:35:01;24.90;71.00
52675;DHT22;38569;52.722;6.440;2023-05-07T12:37:27;24.60;70.40
52675;DHT22;38569;52.722;6.440;2023-05-07T12:40:09;24.50;73.60
52675;DHT22;38569;52.722;6.440;2023-05-07T12:42:36;24.30;73.20
52675;DHT22;38569;52.722;6.440;2023-05-07T12:45:13;24.00;82.50
52675;DHT22;38569;52.722;6.440;2023-05-07T12:47:46;24.60;77.40
52675;DHT22;38569;52.722;6.440;2023-05-07T12:50:13;24.90;77.50
52675;DHT22;38569;52.722;6.440;2023-05-07T12:52:40;24.60;76.20
52675;DHT22;38569;52.722;6.440;2023-05-07T12:55:09;24.90;75.90
52675;DHT22;38569;52.722;6.440;2023-05-07T12:57:39;25.30;74.40
52675;DHT22;38569;52.722;6.440;2023-05-07T13:00:06;24.50;74.40
52675;DHT22;38569;52.722;6.440;2023-05-07T13:02:42;24.50;79.30
52675;DHT22;38569;52.722;6.440;2023-05-07T13:05:11;24.30;79.30
52675;DHT22;38569;52.722;6.440;2023-05-07T13:07:37;24.40;79.70
52675;DHT22;38569;52.722;6.440;2023-05-07T13:10:04;23.90;82.90
52675;DHT22;38569;52.722;6.440;2023-05-07T13:12:30;23.40;89.90
52675;DHT22;38569;52.722;6.440;2023-05-07T13:14:55;23.10;95.30
52675;DHT22;38569;52.722;6.440;2023-05-07T13:17:21;22.90;95.70
52675;DHT22;38569;52.722;6.440;2023-05-07T13:19:47;22.70;98.40
52675;DHT22;38569;52.722;6.440;2023-05-07T13:22:12;22.50;98.50
52675;DHT22;38569;52.722;6.440;2023-05-07T13:24:38;22.30;99.90
52675;DHT22;38569;52.722;6.440;2023-05-07T13:27:07;22.20;99.90
52675;DHT22;38569;52.722;6.440;2023-05-07T13:29:32;22.50;99.90
52675;DHT22;38569;52.722;6.440;2023-05-07T13:31:58;22.70;99.90
52675;DHT22;38569;52.722;6.440;2023-05-07T13:34:25;23.00;99.90
52675;DHT22;38569;52.722;6.440;2023-05-07T13:36:51;23.50;99.90
52675;DHT22;38569;52.722;6.440;2023-05-07T13:39:17;23.50;99.90
52675;DHT22;38569;52.722;6.440;2023-05-07T13:41:42;23.20;99.60
52675;DHT22;38569;52.722;6.440;2023-05-07T13:44:08;22.50;99.90
52675;DHT22;38569;52.722;6.440;2023-05-07T13:46:34;22.40;99.90
52675;DHT22;38569;52.722;6.440;2023-05-07T13:48:59;22.40;99.90
52675;DHT22;38569;52.722;6.440;2023-05-07T13:51:25;22.70;99.90
52675;DHT22;38569;52.722;6.440;2023-05-07T13:53:51;22.80;99.90
52675;DHT22;38569;52.722;6.440;2023-05-07T13:56:18;22.70;99.90
52675;DHT22;38569;52.722;6.440;2023-05-07T13:58:43;22.60;99.90
52675;DHT22;38569;52.722;6.440;2023-05-07T14:01:09;22.70;99.90
52675;DHT22;38569;52.722;6.440;2023-05-07T14:03:35;22.60;99.90
52675;DHT22;38569;52.722;6.440;2023-05-07T14:06:03;22.40;99.90
52675;DHT22;38569;52.722;6.440;2023-05-07T14:08:29;22.40;99.90
52675;DHT22;38569;52.722;6.440;2023-05-07T14:10:55;22.20;99.90
52675;DHT22;38569;52.722;6.440;2023-05-07T14:13:20;21.90;99.90
52675;DHT22;38569;52.722;6.440;2023-05-07T14:15:46;22.00;99.90
52675;DHT22;38569;52.722;6.440;2023-05-07T14:18:14;22.30;99.90
52675;DHT22;38569;52.722;6.440;2023-05-07T14:20:42;21.90;99.90
52675;DHT22;38569;52.722;6.440;2023-05-07T14:23:13;21.90;99.90
52675;DHT22;38569;52.722;6.440;2023-05-07T14:25:38;21.80;99.90
52675;DHT22;38569;52.722;6.440;2023-05-07T14:28:04;21.90;99.90
52675;DHT22;38569;52.722;6.440;2023-05-07T14:30:30;22.10;99.90
52675;DHT22;38569;52.722;6.440;2023-05-07T14:32:56;22.10;99.90
52675;DHT22;38569;52.722;6.440;2023-05-07T14:35:21;22.10;99.90
52675;DHT22;38569;52.722;6.440;2023-05-07T14:37:47;22.10;99.90
52675;DHT22;38569;52.722;6.440;2023-05-07T14:40:13;21.70;99.90
52675;DHT22;38569;52.722;6.440;2023-05-07T14:42:40;21.60;99.90
52675;DHT22;38569;52.722;6.440;2023-05-07T14:45:06;21.50;99.90
52675;DHT22;38569;52.722;6.440;2023-05-07T14:47:32;21.30;99.90
52675;DHT22;38569;52.722;6.440;2023-05-07T14:49:57;21.50;99.90
52675;DHT22;38569;52.722;6.440;2023-05-07T14:52:24;21.50;99.90
52675;DHT22;38569;52.722;6.440;2023-05-07T14:54:51;21.60;99.90
52675;DHT22;38569;52.722;6.440;2023-05-07T14:57:17;21.50;99.90
52675;DHT22;38569;52.722;6.440;2023-05-07T14:59:44;21.20;99.90
52675;DHT22;38569;52.722;6.440;2023-05-07T15:02:11;20.90;99.90
52675;DHT22;38569;52.722;6.440;2023-05-07T15:04:38;20.70;99.90
52675;DHT22;38569;52.722;6.440;2023-05-07T15:07:05;20.70;99.90
52675;DHT22;38569;52.722;6.440;2023-05-07T15:09:30;20.60;99.90
52675;DHT22;38569;52.722;6.440;2023-05-07T15:11:56;20.60;99.90
52675;DHT22;38569;52.722;6.440;2023-05-07T15:14:22;20.40;99.90
52675;DHT22;38569;52.722;6.440;2023-05-07T15:16:48;20.40;99.90
52675;DHT22;38569;52.722;6.440;2023-05-07T15:19:14;20.40;99.90
52675;DHT22;38569;52.722;6.440;2023-05-07T15:21:42;20.30;99.90
52675;DHT22;38569;52.722;6.440;2023-05-07T15:24:08;20.50;99.90
52675;DHT22;38569;52.722;6.440;2023-05-07T15:26:34;20.60;99.90
52675;DHT22;38569;52.722;6.440;2023-05-07T15:28:59;20.60;99.90
52675;DHT22;38569;52.722;6.440;2023-05-07T15:31:25;20.50;99.90
52675;DHT22;38569;52.722;6.440;2023-05-07T15:33:51;20.50;99.90
52675;DHT22;38569;52.722;6.440;2023-05-07T15:36:20;20.60;99.90
52675;DHT22;38569;52.722;6.440;2023-05-07T15:38:46;20.60;99.90
52675;DHT22;38569;52.722;6.440;2023-05-07T15:41:12;20.30;99.90
52675;DHT22;38569;52.722;6.440;2023-05-07T15:43:46;20.30;99.90
52675;DHT22;38569;52.722;6.440;2023-05-07T15:46:12;20.20;99.90